Time;durP1;ratioP1;P1;durP2;ratioP2;P2;SDS_P1;SDS_P2;PMS_P1;PMS_P2;Temp;Humidity;BMP_temperature;BMP_pressure;BME280_temperature;BME280_humidity;BME280_pressure;Samples;Min_cycle;Max_cycle;Signal;HPM_P1;HPM_P2
2023/01/26 00:00:17;;;;;;;54.42;22.40;;;;;;;;;;6267968;28;20101;-58
2023/01/26 00:03:37;;;;;;;51.00;26.00;;;;;;;;;;6267685;28;20053;-51
2023/01/26 00:06:38;;;;;;;56.25;24.08;;;;;;;;;;6264783;28;20220;-54
2023/01/26 00:09:38;;;;;;;42.03;20.83;;;;;;;;;;6272202;28;20045;-53
2023/01/26 00:12:39;;;;;;;41.20;18.20;;;;;;;;;;6268282;28;20139;-52
2023/01/26 00:15:41;;;;;;;51.50;22.33;;;;;;;;;;6273048;28;20053;-56
2023/01/26 00:18:42;;;;;;;;;;;;;;;;;;6275388;28;20052;-57
2023/01/26 00:21:42;;;;;;;41.28;18.85;;;;;;;;;;6271116;28;19928;-52
2023/01/26 00:24:43;;;;;;;40.47;18.20;;;;;;;;;;6272135;28;20068;-53
2023/01/26 00:27:44;;;;;;;37.75;17.25;;;;;;;;;;6273158;28;20044;-55
2023/01/26 00:30:44;;;;;;;35.65;14.60;;;;;;;;;;6278213;28;20597;-58
2023/01/26 00:33:45;;;;;;;41.05;16.30;;;;;;;;;;6305088;28;20040;-51
2023/01/26 00:36:46;;;;;;;37.90;15.38;;;;;;;;;;6300569;28;20487;-55
2023/01/26 00:39:46;;;;;;;33.20;14.52;;;;;;;;;;6296129;28;20084;-57
2023/01/26 00:42:47;;;;;;;39.28;15.38;;;;;;;;;;6292167;28;20041;-55
2023/01/26 00:45:48;;;;;;;40.42;17.45;;;;;;;;;;6290619;28;20052;-55
2023/01/26 00:48:49;;;;;;;42.13;18.90;;;;;;;;;;6309073;28;20049;-61
2023/01/26 00:51:49;;;;;;;38.80;16.17;;;;;;;;;;6303252;28;20040;-55
2023/01/26 00:54:50;;;;;;;37.63;15.30;;;;;;;;;;6307088;28;20057;-57
2023/01/26 00:57:50;;;;;;;41.03;16.70;;;;;;;;;;6301490;28;20067;-55
2023/01/26 01:00:52;;;;;;;39.53;16.60;;;;;;;;;;6291681;28;20063;-59
2023/01/26 01:03:52;;;;;;;40.00;18.47;;;;;;;;;;6311984;28;20174;-55
2023/01/26 01:06:53;;;;;;;43.13;17.67;;;;;;;;;;6314211;28;20070;-55
2023/01/26 01:09:54;;;;;;;45.72;21.48;;;;;;;;;;6302482;28;20048;-61
2023/01/26 01:12:55;;;;;;;56.35;22.95;;;;;;;;;;6297759;28;20075;-53
2023/01/26 01:15:55;;;;;;;58.90;24.15;;;;;;;;;;6316804;28;20044;-55
2023/01/26 01:18:56;;;;;;;45.38;19.10;;;;;;;;;;6309541;28;20051;-56
2023/01/26 01:21:57;;;;;;;42.90;16.55;;;;;;;;;;6316256;28;20113;-59
2023/01/26 01:24:57;;;;;;;43.20;19.38;;;;;;;;;;6315199;28;20044;-61
2023/01/26 01:27:58;;;;;;;41.05;16.95;;;;;;;;;;6309868;28;20040;-56
2023/01/26 01:30:59;;;;;;;38.78;16.17;;;;;;;;;;6316400;28;20093;-55
2023/01/26 01:33:59;;;;;;;46.25;19.15;;;;;;;;;;6311335;28;20569;-60
2023/01/26 01:37:00;;;;;;;39.90;16.95;;;;;;;;;;6313848;28;20072;-61
2023/01/26 01:40:00;;;;;;;43.78;17.17;;;;;;;;;;6307998;28;20075;-56
2023/01/26 01:43:01;;;;;;;43.08;16.70;;;;;;;;;;6313516;28;20044;-53
2023/01/26 01:46:30;;;;;;;50.85;20.10;;;;;;;;;;6316454;28;20071;-55
2023/01/26 01:49:43;;;;;;;46.05;18.38;;;;;;;;;;6308908;28;20056;-55
2023/01/26 01:52:45;;;;;;;44.80;16.58;;;;;;;;;;6315424;28;20486;-57
2023/01/26 01:55:46;;;;;;;41.77;17.00;;;;;;;;;;6302797;28;20059;-53
2023/01/26 01:58:49;;;;;;;41.92;17.55;;;;;;;;;;6307653;28;20036;-53
2023/01/26 02:01:51;;;;;;;45.83;17.88;;;;;;;;;;6311961;28;20079;-56
2023/01/26 02:04:52;;;;;;;40.90;17.20;;;;;;;;;;6274595;28;20127;-54
2023/01/26 02:07:54;;;;;;;44.05;19.05;;;;;;;;;;6311164;28;20464;-56
2023/01/26 02:10:58;;;;;;;45.85;19.58;;;;;;;;;;6295707;28;20102;-54
2023/01/26 02:14:01;;;;;;;42.15;17.23;;;;;;;;;;6312052;28;20534;-54
2023/01/26 02:17:02;;;;;;;45.83;17.70;;;;;;;;;;6304039;28;20048;-56
2023/01/26 02:20:11;;;;;;;40.80;16.35;;;;;;;;;;6287691;28;20051;-58
2023/01/26 02:23:34;;;;;;;41.85;17.02;;;;;;;;;;6295905;28;20093;-52
2023/01/26 02:26:36;;;;;;;46.63;18.05;;;;;;;;;;6296251;28;20095;-56
2023/01/26 02:29:36;;;;;;;49.17;17.48;;;;;;;;;;6302204;28;20205;-55
2023/01/26 02:32:37;;;;;;;43.53;16.80;;;;;;;;;;6293187;28;20044;-61
2023/01/26 02:35:37;;;;;;;45.10;16.98;;;;;;;;;;6296162;28;20055;-56
2023/01/26 02:38:40;;;;;;;47.03;18.73;;;;;;;;;;6295406;28;20049;-56
2023/01/26 02:45:00;;;;;;;42.60;16.08;;;;;;;;;;6293504;28;19920;-59
2023/01/26 02:48:05;;;;;;;39.90;16.75;;;;;;;;;;6290567;28;20588;-58
2023/01/26 02:51:06;;;;;;;49.22;18.95;;;;;;;;;;6300831;28;20051;-56
2023/01/26 02:54:06;;;;;;;49.45;20.92;;;;;;;;;;6301674;28;20045;-55
2023/01/26 02:57:07;;;;;;;44.95;17.88;;;;;;;;;;6295198;28;20138;-60
2023/01/26 03:00:12;;;;;;;44.78;17.90;;;;;;;;;;6296088;28;20051;-54
2023/01/26 03:03:21;;;;;;;49.20;19.75;;;;;;;;;;6295071;28;20046;-56
2023/01/26 03:06:21;;;;;;;48.67;19.92;;;;;;;;;;6291767;28;20048;-58
2023/01/26 03:09:22;;;;;;;48.17;19.17;;;;;;;;;;6293855;28;20135;-60
2023/01/26 03:12:22;;;;;;;47.72;19.50;;;;;;;;;;6293386;28;20041;-55
2023/01/26 03:28:39;;;;;;;57.25;22.20;;;;;;;;;;6296852;28;20167;-55
2023/01/26 03:31:40;;;;;;;46.15;19.50;;;;;;;;;;6295869;28;20584;-57
2023/01/26 03:34:41;;;;;;;51.13;20.77;;;;;;;;;;6291876;28;20049;-58
2023/01/26 03:37:42;;;;;;;53.03;21.17;;;;;;;;;;6293701;28;20044;-57
2023/01/26 03:57:19;;;;;;;53.67;23.38;;;;;;;;;;6292318;28;20051;-53
2023/01/26 04:00:20;;;;;;;56.17;22.45;;;;;;;;;;6292957;28;20090;-54
2023/01/26 04:10:03;;;;;;;59.97;25.08;;;;;;;;;;6290833;28;20041;-54
2023/01/26 04:23:01;;;;;;;47.15;20.27;;;;;;;;;;6286540;28;20055;-56
2023/01/26 04:26:01;;;;;;;52.65;21.30;;;;;;;;;;6291566;28;20443;-56
2023/01/26 04:29:04;;;;;;;48.15;20.73;;;;;;;;;;6291793;28;20090;-59
2023/01/26 04:32:05;;;;;;;52.25;21.48;;;;;;;;;;6290515;28;20041;-56
2023/01/26 04:35:07;;;;;;;56.40;21.95;;;;;;;;;;6295515;28;20457;-55
2023/01/26 04:38:07;;;;;;;55.53;23.70;;;;;;;;;;6292066;28;20044;-55
2023/01/26 04:41:08;;;;;;;46.60;20.58;;;;;;;;;;6292103;28;20044;-56
2023/01/26 04:44:09;;;;;;;53.05;21.02;;;;;;;;;;6292402;28;20182;-57
2023/01/26 04:47:09;;;;;;;56.28;23.63;;;;;;;;;;6290705;28;20052;-57
2023/01/26 04:50:10;;;;;;;50.83;22.15;;;;;;;;;;6298819;28;20037;-56
2023/01/26 04:53:11;;;;;;;55.78;22.63;;;;;;;;;;6296137;28;20048;-58
2023/01/26 04:56:33;;;;;;;47.65;20.15;;;;;;;;;;6295772;28;20060;-57
2023/01/26 04:59:33;;;;;;;49.37;21.50;;;;;;;;;;6289236;28;20051;-60
2023/01/26 05:02:34;;;;;;;53.08;20.63;;;;;;;;;;6296957;28;20043;-57
2023/01/26 05:05:38;;;;;;;52.20;21.35;;;;;;;;;;6290679;28;20421;-56
2023/01/26 05:08:39;;;;;;;49.35;19.65;;;;;;;;;;6293921;28;20074;-57
2023/01/26 05:11:39;;;;;;;46.13;20.77;;;;;;;;;;6291926;28;20045;-54
2023/01/26 05:14:40;;;;;;;54.92;21.10;;;;;;;;;;6288068;28;20183;-58
2023/01/26 05:17:40;;;;;;;56.53;21.40;;;;;;;;;;6290494;28;20110;-56
2023/01/26 05:20:41;;;;;;;53.08;22.48;;;;;;;;;;6292699;28;20099;-55
2023/01/26 05:23:42;;;;;;;53.92;24.48;;;;;;;;;;6291255;28;20044;-61
2023/01/26 05:26:42;;;;;;;57.70;23.67;;;;;;;;;;6291143;28;20047;-60
2023/01/26 05:29:43;;;;;;;55.72;22.48;;;;;;;;;;6289619;28;20101;-56
2023/01/26 05:32:43;;;;;;;56.50;23.80;;;;;;;;;;6290223;28;20080;-54
2023/01/26 05:35:44;;;;;;;58.15;21.55;;;;;;;;;;6288226;28;20063;-56
2023/01/26 05:38:46;;;;;;;57.78;22.13;;;;;;;;;;6290434;28;20495;-53
2023/01/26 05:41:46;;;;;;;61.10;24.87;;;;;;;;;;6290703;28;21066;-55
2023/01/26 05:44:47;;;;;;;64.88;27.67;;;;;;;;;;6289679;28;20075;-54
2023/01/26 05:47:47;;;;;;;61.50;23.55;;;;;;;;;;6290178;28;20483;-55
2023/01/26 05:50:48;;;;;;;67.63;26.67;;;;;;;;;;6289007;28;20041;-55
2023/01/26 05:53:48;;;;;;;72.80;26.92;;;;;;;;;;6288635;28;20064;-56
2023/01/26 05:56:50;;;;;;;71.07;28.77;;;;;;;;;;6306115;28;20044;-58
2023/01/26 05:59:50;;;;;;;71.88;26.35;;;;;;;;;;6294626;28;20047;-58
2023/01/26 06:02:51;;;;;;;77.57;26.45;;;;;;;;;;6289475;28;20044;-57
2023/01/26 06:05:53;;;;;;;69.63;26.73;;;;;;;;;;6293305;28;20407;-59
2023/01/26 06:08:54;;;;;;;76.43;29.92;;;;;;;;;;6293138;28;20049;-57
2023/01/26 06:11:55;;;;;;;81.75;30.02;;;;;;;;;;6287273;28;20063;-62
2023/01/26 06:14:57;;;;;;;86.57;31.33;;;;;;;;;;6287811;28;20157;-60
2023/01/26 06:17:59;;;;;;;72.22;29.85;;;;;;;;;;6291314;28;20048;-58
2023/01/26 06:21:00;;;;;;;63.20;25.20;;;;;;;;;;6291506;28;20411;-61
2023/01/26 06:24:01;;;;;;;60.13;25.50;;;;;;;;;;6290132;28;20047;-60
2023/01/26 06:27:05;;;;;;;62.25;26.08;;;;;;;;;;6309862;28;20052;-62
2023/01/26 06:30:07;;;;;;;69.00;28.63;;;;;;;;;;6307594;28;20067;-60
2023/01/26 06:33:07;;;;;;;50.50;20.50;;;;;;;;;;6292804;28;20070;-59
2023/01/26 06:36:12;;;;;;;60.15;22.92;;;;;;;;;;6290872;28;20045;-60
2023/01/26 06:39:13;;;;;;;63.97;27.08;;;;;;;;;;6290087;28;20048;-60
2023/01/26 06:42:13;;;;;;;60.13;25.88;;;;;;;;;;6292489;28;20051;-63
2023/01/26 06:45:16;;;;;;;66.82;27.23;;;;;;;;;;6291586;28;20047;-62
2023/01/26 06:48:17;;;;;;;88.30;35.80;;;;;;;;;;6288910;28;20052;-62
2023/01/26 06:51:18;;;;;;;70.95;28.00;;;;;;;;;;6297971;28;20045;-60
2023/01/26 06:54:18;;;;;;;66.57;25.95;;;;;;;;;;6305268;28;20096;-59
2023/01/26 06:57:19;;;;;;;74.93;28.20;;;;;;;;;;6289935;28;20041;-60
2023/01/26 07:00:20;;;;;;;112.30;34.28;;;;;;;;;;6292679;28;20067;-60
2023/01/26 07:03:21;;;;;;;106.55;38.67;;;;;;;;;;6291546;28;20079;-61
2023/01/26 07:06:21;;;;;;;125.15;41.28;;;;;;;;;;6291220;28;20052;-60
2023/01/26 07:09:22;;;;;;;62.75;23.83;;;;;;;;;;6294722;28;20067;-60
2023/01/26 07:12:22;;;;;;;78.25;27.88;;;;;;;;;;6298826;28;20572;-60
2023/01/26 07:15:23;;;;;;;57.45;22.25;;;;;;;;;;6294705;28;20052;-60
2023/01/26 07:18:24;;;;;;;85.10;30.58;;;;;;;;;;6295948;28;20044;-60
2023/01/26 07:21:25;;;;;;;79.50;30.38;;;;;;;;;;6294978;28;20064;-60
2023/01/26 07:24:25;;;;;;;64.05;24.42;;;;;;;;;;6290935;28;20415;-60
2023/01/26 07:27:26;;;;;;;67.97;27.15;;;;;;;;;;6295169;28;20048;-59
2023/01/26 07:30:26;;;;;;;63.92;26.17;;;;;;;;;;6294840;28;20067;-60
2023/01/26 07:33:27;;;;;;;64.75;25.02;;;;;;;;;;6296870;28;20056;-60
2023/01/26 07:36:28;;;;;;;68.90;24.30;;;;;;;;;;6294432;28;20082;-59
2023/01/26 07:39:29;;;;;;;62.92;25.80;;;;;;;;;;6292963;28;20040;-60
2023/01/26 07:42:30;;;;;;;65.10;24.98;;;;;;;;;;6302160;28;20051;-59
2023/01/26 07:45:31;;;;;;;81.30;30.55;;;;;;;;;;6319763;28;20071;-62
2023/01/26 07:48:33;;;;;;;64.53;25.77;;;;;;;;;;6297760;28;20052;-60
2023/01/26 07:51:33;;;;;;;90.93;32.03;;;;;;;;;;6307448;28;20077;-62
2023/01/26 07:54:34;;;;;;;78.63;29.25;;;;;;;;;;6314366;28;20063;-60
2023/01/26 07:57:34;;;;;;;68.07;25.77;;;;;;;;;;6295208;28;20051;-60
2023/01/26 08:00:35;;;;;;;67.03;28.55;;;;;;;;;;6313869;28;20045;-60
2023/01/26 08:03:38;;;;;;;78.10;31.15;;;;;;;;;;6296105;28;20052;-60
2023/01/26 08:06:38;;;;;;;88.68;37.13;;;;;;;;;;6293188;28;20039;-60
2023/01/26 08:09:39;;;;;;;87.85;34.22;;;;;;;;;;6290692;28;20392;-61
2023/01/26 08:12:39;;;;;;;82.50;31.45;;;;;;;;;;6294673;28;20271;-60
2023/01/26 08:15:40;;;;;;;90.53;33.72;;;;;;;;;;6292280;28;20557;-62
2023/01/26 08:18:42;;;;;;;75.38;30.80;;;;;;;;;;6301618;28;20052;-61
2023/01/26 08:21:43;;;;;;;74.25;28.42;;;;;;;;;;6313519;28;20098;-63
2023/01/26 08:24:43;;;;;;;84.45;29.33;;;;;;;;;;6298749;28;20049;-60
2023/01/26 08:27:44;;;;;;;69.22;28.65;;;;;;;;;;6291167;28;20048;-60
2023/01/26 08:30:44;;;;;;;72.53;27.58;;;;;;;;;;6292964;28;20048;-60
2023/01/26 08:33:49;;;;;;;70.88;27.85;;;;;;;;;;6292867;28;20143;-60
2023/01/26 08:36:49;;;;;;;69.07;27.20;;;;;;;;;;6297187;28;20056;-61
2023/01/26 08:39:51;;;;;;;73.85;27.92;;;;;;;;;;6316227;28;20079;-61
2023/01/26 08:42:53;;;;;;;70.43;28.10;;;;;;;;;;6290797;28;20477;-60
2023/01/26 08:45:54;;;;;;;68.63;28.10;;;;;;;;;;6294400;28;20044;-60
2023/01/26 08:48:55;;;;;;;71.53;29.60;;;;;;;;;;6292931;28;20562;-60
2023/01/26 08:51:55;;;;;;;77.35;30.00;;;;;;;;;;6292620;28;20040;-61
2023/01/26 08:54:56;;;;;;;74.28;29.38;;;;;;;;;;6309720;28;20049;-61
2023/01/26 08:57:57;;;;;;;75.63;29.83;;;;;;;;;;6299847;28;20054;-60
2023/01/26 09:01:02;;;;;;;70.57;28.70;;;;;;;;;;6311550;28;20089;-62
2023/01/26 09:04:02;;;;;;;76.25;32.03;;;;;;;;;;6294474;28;20052;-59
2023/01/26 09:07:04;;;;;;;71.68;27.88;;;;;;;;;;6291687;28;20095;-61
2023/01/26 09:10:07;;;;;;;69.65;28.77;;;;;;;;;;6295132;28;20485;-60
2023/01/26 09:13:08;;;;;;;66.68;26.45;;;;;;;;;;6292958;28;20051;-60
2023/01/26 09:16:17;;;;;;;61.00;22.70;;;;;;;;;;6290290;28;20056;-58
2023/01/26 09:19:17;;;;;;;78.47;25.98;;;;;;;;;;6287586;28;20222;-59
2023/01/26 09:22:18;;;;;;;74.38;26.15;;;;;;;;;;6291515;28;20053;-60
2023/01/26 09:25:18;;;;;;;93.03;35.50;;;;;;;;;;6294037;28;20048;-59
2023/01/26 09:28:19;;;;;;;93.78;30.77;;;;;;;;;;6289938;28;20044;-59
2023/01/26 09:31:19;;;;;;;63.65;24.73;;;;;;;;;;6288913;28;20101;-61
2023/01/26 09:34:20;;;;;;;60.35;25.83;;;;;;;;;;6289528;28;20148;-63
2023/01/26 09:37:21;;;;;;;70.95;27.90;;;;;;;;;;6289564;28;20036;-58
2023/01/26 09:40:49;;;;;;;74.95;29.60;;;;;;;;;;6289799;28;20154;-61
2023/01/26 09:43:55;;;;;;;71.07;26.70;;;;;;;;;;6291678;28;20044;-59
2023/01/26 09:47:16;;;;;;;68.05;28.13;;;;;;;;;;6290108;28;20041;-60
2023/01/26 09:50:28;;;;;;;61.83;25.40;;;;;;;;;;6290863;28;20783;-60
2023/01/26 09:53:39;;;;;;;74.55;29.33;;;;;;;;;;6290443;28;20057;-59
2023/01/26 09:56:40;;;;;;;71.63;28.50;;;;;;;;;;6292014;28;20045;-60
2023/01/26 09:59:45;;;;;;;76.82;31.63;;;;;;;;;;6312247;28;20147;-61
2023/01/26 10:03:10;;;;;;;76.20;30.00;;;;;;;;;;6299855;28;20167;-60
2023/01/26 10:06:25;;;;;;;69.68;29.05;;;;;;;;;;6292409;28;20040;-60
2023/01/26 10:09:32;;;;;;;66.15;25.95;;;;;;;;;;6293014;28;20055;-63
2023/01/26 10:12:37;;;;;;;61.20;25.15;;;;;;;;;;6291671;28;20540;-60
2023/01/26 10:15:40;;;;;;;66.85;27.10;;;;;;;;;;6291511;28;20377;-61
2023/01/26 10:18:51;;;;;;;67.07;26.45;;;;;;;;;;6292214;28;21288;-63
2023/01/26 10:21:53;;;;;;;67.07;27.30;;;;;;;;;;6291739;28;20036;-61
2023/01/26 10:24:56;;;;;;;71.60;29.02;;;;;;;;;;6288465;28;20828;-59
2023/01/26 10:27:56;;;;;;;;;;;;;;;;;;6291379;28;20078;-61
2023/01/26 10:30:57;;;;;;;72.00;26.95;;;;;;;;;;6291830;28;19964;-61
2023/01/26 10:34:07;;;;;;;70.28;26.92;;;;;;;;;;6301819;28;20105;-61
2023/01/26 10:37:28;;;;;;;68.68;27.00;;;;;;;;;;6307739;28;20127;-60
2023/01/26 10:40:29;;;;;;;67.55;26.92;;;;;;;;;;6290694;28;20510;-61
2023/01/26 10:43:51;;;;;;;67.63;27.13;;;;;;;;;;6292788;28;20075;-61
2023/01/26 10:47:21;;;;;;;63.58;25.73;;;;;;;;;;6294159;28;20079;-60
2023/01/26 10:50:24;;;;;;;69.68;25.88;;;;;;;;;;6272005;28;20414;-60
2023/01/26 10:53:28;;;;;;;65.97;25.77;;;;;;;;;;6293994;28;20051;-61
2023/01/26 10:56:29;;;;;;;54.60;22.73;;;;;;;;;;6298377;28;20045;-63
2023/01/26 10:59:33;;;;;;;58.33;23.90;;;;;;;;;;6293995;28;20505;-61
2023/01/26 11:02:35;;;;;;;68.35;31.80;;;;;;;;;;6292251;28;20076;-61
2023/01/26 11:05:36;;;;;;;62.80;27.87;;;;;;;;;;6296208;28;20071;-60
2023/01/26 11:08:38;;;;;;;58.28;25.17;;;;;;;;;;6293922;28;20139;-60
2023/01/26 11:11:39;;;;;;;61.87;24.67;;;;;;;;;;6297275;28;20446;-61
2023/01/26 11:14:39;;;;;;;62.30;24.73;;;;;;;;;;6293249;28;20321;-62
2023/01/26 11:17:55;;;;;;;57.00;21.83;;;;;;;;;;6296710;28;20101;-61
2023/01/26 11:21:10;;;;;;;58.80;23.65;;;;;;;;;;6305582;28;20318;-62
2023/01/26 11:24:25;;;;;;;56.20;23.48;;;;;;;;;;6312057;28;20036;-60
2023/01/26 11:28:00;;;;;;;49.10;21.10;;;;;;;;;;6301386;28;20171;-63
2023/01/26 11:31:13;;;;;;;51.17;19.70;;;;;;;;;;6294586;28;20051;-61
2023/01/26 11:34:45;;;;;;;65.20;24.60;;;;;;;;;;6291218;28;20520;-60
2023/01/26 11:38:17;;;;;;;65.28;26.27;;;;;;;;;;6295011;28;20515;-61
2023/01/26 11:41:30;;;;;;;64.97;26.60;;;;;;;;;;6291743;28;20097;-61
2023/01/26 11:44:40;;;;;;;60.03;24.38;;;;;;;;;;6295655;28;20053;-60
2023/01/26 11:47:50;;;;;;;58.75;23.77;;;;;;;;;;6316718;28;20092;-62
2023/01/26 11:51:16;;;;;;;58.70;22.52;;;;;;;;;;6295977;28;20043;-60
2023/01/26 11:54:23;;;;;;;64.63;23.95;;;;;;;;;;6296233;28;20055;-60
2023/01/26 11:57:30;;;;;;;66.90;25.90;;;;;;;;;;6314386;28;20458;-60
2023/01/26 12:00:44;;;;;;;66.32;25.85;;;;;;;;;;6312030;28;20663;-61
2023/01/26 12:03:49;;;;;;;60.80;26.00;;;;;;;;;;6294479;28;20048;-60
2023/01/26 12:07:19;;;;;;;60.67;26.38;;;;;;;;;;6295696;28;20056;-61
2023/01/26 12:10:29;;;;;;;62.97;23.50;;;;;;;;;;6293762;28;20140;-60
2023/01/26 12:13:37;;;;;;;64.90;24.58;;;;;;;;;;6292757;28;20411;-60
2023/01/26 12:16:57;;;;;;;67.28;24.90;;;;;;;;;;6296130;28;20036;-61
2023/01/26 12:20:16;;;;;;;61.42;26.75;;;;;;;;;;6293194;28;20040;-61
2023/01/26 12:23:24;;;;;;;64.03;23.50;;;;;;;;;;6294090;28;20040;-60
2023/01/26 12:26:30;;;;;;;64.13;25.70;;;;;;;;;;6291798;28;20525;-63
2023/01/26 12:29:53;;;;;;;62.40;25.73;;;;;;;;;;6292943;28;20056;-62
2023/01/26 12:32:54;;;;;;;58.40;21.95;;;;;;;;;;6282800;28;20032;-60
2023/01/26 12:36:02;;;;;;;67.35;26.23;;;;;;;;;;6293779;28;20051;-61
2023/01/26 12:39:11;;;;;;;65.88;28.42;;;;;;;;;;6293129;28;20059;-61
2023/01/26 12:42:31;;;;;;;63.22;24.25;;;;;;;;;;6298902;28;20367;-60
2023/01/26 12:45:40;;;;;;;66.63;31.13;;;;;;;;;;6307816;28;20400;-61
2023/01/26 12:48:54;;;;;;;69.45;30.00;;;;;;;;;;6296042;28;20051;-60
2023/01/26 12:52:05;;;;;;;62.10;27.88;;;;;;;;;;6292404;28;20052;-61
2023/01/26 12:55:15;;;;;;;52.85;22.20;;;;;;;;;;6292631;28;20047;-61
2023/01/26 12:58:22;;;;;;;60.47;24.25;;;;;;;;;;6291839;28;20124;-60
2023/01/26 13:01:25;;;;;;;54.47;20.90;;;;;;;;;;6290453;28;20040;-61
2023/01/26 13:04:26;;;;;;;54.70;20.83;;;;;;;;;;6291173;28;20068;-60
2023/01/26 13:07:35;;;;;;;53.58;21.73;;;;;;;;;;6294182;28;20051;-60
2023/01/26 13:10:47;;;;;;;64.72;23.70;;;;;;;;;;6294217;28;20068;-60
2023/01/26 13:14:25;;;;;;;58.63;21.92;;;;;;;;;;6292775;28;20191;-60
2023/01/26 13:17:26;;;;;;;55.88;22.15;;;;;;;;;;6287200;28;20043;-61
2023/01/26 13:20:39;;;;;;;56.50;22.85;;;;;;;;;;6289737;28;20056;-60
2023/01/26 13:23:42;;;;;;;64.80;22.77;;;;;;;;;;6305945;28;20159;-60
2023/01/26 13:26:49;;;;;;;54.30;21.63;;;;;;;;;;6311045;28;20119;-61
2023/01/26 13:29:54;;;;;;;58.78;21.52;;;;;;;;;;6300370;28;20062;-60
2023/01/26 13:33:09;;;;;;;53.80;21.33;;;;;;;;;;6301968;28;20403;-62
2023/01/26 13:36:18;;;;;;;53.42;20.63;;;;;;;;;;6311598;28;20936;-60
2023/01/26 13:39:30;;;;;;;42.78;17.80;;;;;;;;;;6295151;28;20041;-61
2023/01/26 13:42:48;;;;;;;54.35;21.63;;;;;;;;;;6313819;28;20048;-61
2023/01/26 13:45:54;;;;;;;60.58;23.02;;;;;;;;;;6290594;28;20055;-60
2023/01/26 13:48:55;;;;;;;77.38;29.38;;;;;;;;;;6288307;28;20044;-60
2023/01/26 13:51:56;;;;;;;42.88;18.00;;;;;;;;;;6292840;28;20037;-61
2023/01/26 13:54:59;;;;;;;67.03;26.02;;;;;;;;;;6302929;28;20190;-61
2023/01/26 13:58:12;;;;;;;54.42;23.17;;;;;;;;;;6316436;28;20154;-61
2023/01/26 14:01:15;;;;;;;54.83;22.73;;;;;;;;;;6316086;28;20101;-60
2023/01/26 14:04:30;;;;;;;51.47;20.38;;;;;;;;;;6316845;28;20058;-61
2023/01/26 14:07:34;;;;;;;51.40;19.60;;;;;;;;;;6316125;28;20681;-61
2023/01/26 14:10:41;;;;;;;52.80;21.65;;;;;;;;;;6316574;28;20090;-61
2023/01/26 14:13:42;;;;;;;53.30;22.88;;;;;;;;;;6316455;28;20128;-60
2023/01/26 14:16:42;;;;;;;55.33;21.80;;;;;;;;;;6315824;28;20052;-63
2023/01/26 14:19:43;;;;;;;139.20;53.85;;;;;;;;;;6320639;28;20165;-59
2023/01/26 14:22:47;;;;;;;205.80;74.05;;;;;;;;;;6321409;28;20105;-60
2023/01/26 14:25:55;;;;;;;134.00;54.10;;;;;;;;;;6321078;28;20089;-62
2023/01/26 14:28:59;;;;;;;137.93;51.65;;;;;;;;;;6321115;28;20414;-61
2023/01/26 14:32:00;;;;;;;90.28;34.30;;;;;;;;;;6320761;28;20096;-62
2023/01/26 14:35:00;;;;;;;67.07;25.88;;;;;;;;;;6321174;28;20052;-60
2023/01/26 14:38:19;;;;;;;63.08;24.48;;;;;;;;;;6321005;28;20043;-59
2023/01/26 14:41:27;;;;;;;61.10;24.67;;;;;;;;;;6320900;28;20799;-60
2023/01/26 14:44:28;;;;;;;71.57;28.70;;;;;;;;;;6320486;28;20066;-60
2023/01/26 14:47:32;;;;;;;61.55;24.50;;;;;;;;;;6308129;28;20041;-60
2023/01/26 14:50:34;;;;;;;56.20;21.52;;;;;;;;;;6250597;28;20550;-60
2023/01/26 14:53:34;;;;;;;55.75;22.67;;;;;;;;;;6270953;28;20065;-59
2023/01/26 14:56:39;;;;;;;64.97;25.45;;;;;;;;;;6273892;28;20037;-55
2023/01/26 14:59:40;;;;;;;64.57;25.70;;;;;;;;;;6270098;28;20529;-56
2023/01/26 15:02:46;;;;;;;66.25;25.67;;;;;;;;;;6271694;28;20071;-57
2023/01/26 15:05:47;;;;;;;66.18;29.55;;;;;;;;;;6275286;28;20663;-57
2023/01/26 15:08:55;;;;;;;212.98;78.28;;;;;;;;;;6271029;28;20048;-56
2023/01/26 15:12:16;;;;;;;94.38;40.90;;;;;;;;;;6272766;28;20049;-57
2023/01/26 15:15:19;;;;;;;68.30;27.95;;;;;;;;;;6270898;28;20186;-55
2023/01/26 15:18:20;;;;;;;66.03;26.02;;;;;;;;;;6268635;28;20139;-60
2023/01/26 15:21:21;;;;;;;70.75;29.52;;;;;;;;;;6270964;28;20119;-56
2023/01/26 15:24:22;;;;;;;102.68;39.60;;;;;;;;;;6270526;28;20049;-57
2023/01/26 15:27:22;;;;;;;86.82;37.60;;;;;;;;;;6275222;28;20049;-58
2023/01/26 15:30:29;;;;;;;89.88;37.00;;;;;;;;;;6269023;28;20376;-58
2023/01/26 15:33:48;;;;;;;69.75;28.42;;;;;;;;;;6274559;28;20052;-58
2023/01/26 15:36:50;;;;;;;66.53;25.75;;;;;;;;;;6271187;28;20090;-58
2023/01/26 15:39:50;;;;;;;75.13;29.73;;;;;;;;;;6270079;28;20053;-54
2023/01/26 15:43:19;;;;;;;88.68;39.15;;;;;;;;;;6269340;28;20462;-57
2023/01/26 15:46:20;;;;;;;90.75;34.47;;;;;;;;;;6271516;28;20106;-57
2023/01/26 15:49:21;;;;;;;73.20;30.70;;;;;;;;;;6268838;28;20052;-56
2023/01/26 15:52:28;;;;;;;66.85;29.02;;;;;;;;;;6271260;28;20494;-55
2023/01/26 15:55:32;;;;;;;68.63;29.95;;;;;;;;;;6273865;28;20077;-56
2023/01/26 15:58:34;;;;;;;64.40;29.25;;;;;;;;;;6270755;28;20057;-55
2023/01/26 16:01:35;;;;;;;70.05;29.75;;;;;;;;;;6274201;28;20049;-63
2023/01/26 16:04:36;;;;;;;74.45;30.52;;;;;;;;;;6274539;28;20044;-57
2023/01/26 16:07:36;;;;;;;79.05;31.30;;;;;;;;;;6272018;28;20056;-55
2023/01/26 16:10:37;;;;;;;77.30;31.90;;;;;;;;;;6253552;28;20076;-57
2023/01/26 16:13:39;;;;;;;75.57;30.38;;;;;;;;;;6268723;28;20040;-55
2023/01/26 16:16:39;;;;;;;71.37;29.40;;;;;;;;;;6272208;28;20066;-58
2023/01/26 16:19:41;;;;;;;73.70;34.70;;;;;;;;;;6267637;28;20642;-56
2023/01/26 16:22:42;;;;;;;90.88;34.83;;;;;;;;;;6271230;28;20046;-55
2023/01/26 16:25:43;;;;;;;101.80;40.17;;;;;;;;;;6270661;28;20053;-51
2023/01/26 16:28:44;;;;;;;96.35;34.60;;;;;;;;;;6269809;28;20400;-55
2023/01/26 16:31:44;;;;;;;80.47;31.25;;;;;;;;;;6277928;28;20049;-56
2023/01/26 16:34:45;;;;;;;80.63;31.98;;;;;;;;;;6273852;28;20064;-61
2023/01/26 16:37:46;;;;;;;76.10;31.25;;;;;;;;;;6270920;28;20675;-56
2023/01/26 16:40:48;;;;;;;88.57;34.45;;;;;;;;;;6273518;28;20053;-55
2023/01/26 16:43:48;;;;;;;89.10;36.53;;;;;;;;;;6276872;28;20488;-55
2023/01/26 16:46:49;;;;;;;138.18;49.17;;;;;;;;;;6276733;28;20041;-53
2023/01/26 16:49:50;;;;;;;186.60;65.07;;;;;;;;;;6269246;28;20106;-55
2023/01/26 16:52:51;;;;;;;260.48;94.93;;;;;;;;;;6267890;28;20324;-54
2023/01/26 16:55:52;;;;;;;127.60;52.85;;;;;;;;;;6271584;28;20068;-54
2023/01/26 16:58:53;;;;;;;117.60;49.95;;;;;;;;;;6268722;28;20537;-56
2023/01/26 17:01:54;;;;;;;99.07;43.05;;;;;;;;;;6278340;28;20425;-55
2023/01/26 17:04:55;;;;;;;110.80;45.42;;;;;;;;;;6267289;28;20063;-67
2023/01/26 17:07:56;;;;;;;91.60;37.55;;;;;;;;;;6278659;28;20450;-72
2023/01/26 17:10:56;;;;;;;103.53;42.20;;;;;;;;;;6277703;28;20052;-70
2023/01/26 17:13:58;;;;;;;99.65;37.75;;;;;;;;;;6277598;28;20058;-59
2023/01/26 17:16:58;;;;;;;100.97;36.03;;;;;;;;;;6277651;28;20422;-59
2023/01/26 17:20:00;;;;;;;93.90;36.10;;;;;;;;;;6275484;28;20312;-58
2023/01/26 17:23:01;;;;;;;99.57;38.25;;;;;;;;;;6270236;28;20041;-59
2023/01/26 17:26:02;;;;;;;98.72;38.88;;;;;;;;;;6272454;28;20052;-60
2023/01/26 17:29:03;;;;;;;112.63;40.17;;;;;;;;;;6270764;28;20159;-60
2023/01/26 17:32:03;;;;;;;109.70;39.75;;;;;;;;;;6270294;28;20359;-60
2023/01/26 17:35:04;;;;;;;129.68;48.28;;;;;;;;;;6272337;28;20095;-60
2023/01/26 17:38:05;;;;;;;171.95;58.33;;;;;;;;;;6270023;28;21571;-60
2023/01/26 17:41:06;;;;;;;146.55;54.72;;;;;;;;;;6268142;28;20160;-60
2023/01/26 17:44:07;;;;;;;114.88;41.30;;;;;;;;;;6280145;28;20045;-61
2023/01/26 17:47:10;;;;;;;95.75;36.28;;;;;;;;;;6269547;28;20079;-61
2023/01/26 17:50:11;;;;;;;102.22;38.38;;;;;;;;;;6276850;28;20122;-61
2023/01/26 17:53:12;;;;;;;85.65;35.70;;;;;;;;;;6267659;28;20049;-61
2023/01/26 17:56:17;;;;;;;97.57;37.83;;;;;;;;;;6268022;28;20102;-62
2023/01/26 17:59:18;;;;;;;106.15;41.58;;;;;;;;;;6260798;28;20053;-62
2023/01/26 18:02:18;;;;;;;89.72;35.40;;;;;;;;;;6263503;28;20056;-62
2023/01/26 18:05:19;;;;;;;99.88;38.88;;;;;;;;;;6264315;28;20086;-62
2023/01/26 18:08:20;;;;;;;111.85;41.95;;;;;;;;;;6264349;28;20045;-62
2023/01/26 18:11:21;;;;;;;123.40;52.42;;;;;;;;;;6267739;28;20057;-62
2023/01/26 18:14:21;;;;;;;119.93;48.83;;;;;;;;;;6268025;28;20134;-62
2023/01/26 18:17:22;;;;;;;112.75;43.55;;;;;;;;;;6266598;28;20147;-62
2023/01/26 18:20:22;;;;;;;109.32;44.55;;;;;;;;;;6263833;28;20494;-61
2023/01/26 18:23:25;;;;;;;121.95;46.05;;;;;;;;;;6269377;28;20084;-61
2023/01/26 18:26:28;;;;;;;177.98;48.72;;;;;;;;;;6266834;28;20609;-62
2023/01/26 18:29:29;;;;;;;113.13;43.13;;;;;;;;;;6266303;28;20497;-61
2023/01/26 18:32:29;;;;;;;114.90;43.60;;;;;;;;;;6272846;28;20053;-61
2023/01/26 18:35:30;;;;;;;111.75;42.85;;;;;;;;;;6263033;28;20063;-61
2023/01/26 18:38:30;;;;;;;121.97;44.80;;;;;;;;;;6267588;28;20079;-61